sensor_id;sensor_type;location;lat;lon;timestamp;P1;durP1;ratioP1;P2;durP2;ratioP2
24585;SDS011;12743;52.262;6.172;2023-03-30T00:01:15;8.95;;;3.22;;
24585;SDS011;12743;52.262;6.172;2023-03-30T00:03:43;9.17;;;3.00;;
24585;SDS011;12743;52.262;6.172;2023-03-30T00:06:11;8.15;;;2.80;;
24585;SDS011;12743;52.262;6.172;2023-03-30T00:08:46;7.28;;;2.45;;
24585;SDS011;12743;52.262;6.172;2023-03-30T00:11:13;8.05;;;2.97;;
24585;SDS011;12743;52.262;6.172;2023-03-30T00:13:41;10.05;;;2.60;;
24585;SDS011;12743;52.262;6.172;2023-03-30T00:16:09;10.07;;;2.87;;
24585;SDS011;12743;52.262;6.172;2023-03-30T00:18:37;8.15;;;2.55;;
24585;SDS011;12743;52.262;6.172;2023-03-30T00:21:05;10.30;;;3.00;;
24585;SDS011;12743;52.262;6.172;2023-03-30T00:23:34;7.57;;;2.30;;
24585;SDS011;12743;52.262;6.172;2023-03-30T00:26:01;7.40;;;2.38;;
24585;SDS011;12743;52.262;6.172;2023-03-30T00:28:28;6.93;;;2.10;;
24585;SDS011;12743;52.262;6.172;2023-03-30T00:30:58;8.20;;;2.38;;
24585;SDS011;12743;52.262;6.172;2023-03-30T00:33:25;7.05;;;2.15;;
24585;SDS011;12743;52.262;6.172;2023-03-30T00:36:07;7.00;;;2.40;;
24585;SDS011;12743;52.262;6.172;2023-03-30T00:38:34;4.45;;;1.80;;
24585;SDS011;12743;52.262;6.172;2023-03-30T00:41:01;9.33;;;2.50;;
24585;SDS011;12743;52.262;6.172;2023-03-30T00:43:28;6.70;;;2.53;;
24585;SDS011;12743;52.262;6.172;2023-03-30T00:45:55;9.88;;;2.22;;
24585;SDS011;12743;52.262;6.172;2023-03-30T00:48:27;9.40;;;2.38;;
24585;SDS011;12743;52.262;6.172;2023-03-30T00:50:59;5.68;;;1.92;;
24585;SDS011;12743;52.262;6.172;2023-03-30T00:55:57;10.18;;;2.25;;
24585;SDS011;12743;52.262;6.172;2023-03-30T00:58:25;10.50;;;2.60;;
24585;SDS011;12743;52.262;6.172;2023-03-30T01:00:53;6.72;;;1.90;;
24585;SDS011;12743;52.262;6.172;2023-03-30T01:03:23;9.68;;;2.40;;
24585;SDS011;12743;52.262;6.172;2023-03-30T01:05:55;9.90;;;2.50;;
24585;SDS011;12743;52.262;6.172;2023-03-30T01:08:25;6.90;;;1.90;;
24585;SDS011;12743;52.262;6.172;2023-03-30T01:11:00;10.48;;;2.08;;
24585;SDS011;12743;52.262;6.172;2023-03-30T01:13:27;7.65;;;1.70;;
24585;SDS011;12743;52.262;6.172;2023-03-30T01:30:30;5.18;;;1.52;;
24585;SDS011;12743;52.262;6.172;2023-03-30T01:33:18;7.23;;;1.73;;
24585;SDS011;12743;52.262;6.172;2023-03-30T01:38:53;7.15;;;2.28;;
24585;SDS011;12743;52.262;6.172;2023-03-30T01:46:32;5.93;;;1.57;;
24585;SDS011;12743;52.262;6.172;2023-03-30T01:49:13;5.35;;;1.65;;
24585;SDS011;12743;52.262;6.172;2023-03-30T01:51:44;6.47;;;1.60;;
24585;SDS011;12743;52.262;6.172;2023-03-30T01:54:30;6.57;;;1.70;;
24585;SDS011;12743;52.262;6.172;2023-03-30T01:59:57;7.10;;;1.60;;
24585;SDS011;12743;52.262;6.172;2023-03-30T02:02:38;5.65;;;1.70;;
24585;SDS011;12743;52.262;6.172;2023-03-30T02:05:07;5.85;;;1.83;;
24585;SDS011;12743;52.262;6.172;2023-03-30T02:07:35;8.18;;;1.60;;
24585;SDS011;12743;52.262;6.172;2023-03-30T02:10:05;5.93;;;1.77;;
24585;SDS011;12743;52.262;6.172;2023-03-30T02:12:34;7.13;;;1.83;;
24585;SDS011;12743;52.262;6.172;2023-03-30T02:15:03;6.25;;;1.50;;
24585;SDS011;12743;52.262;6.172;2023-03-30T02:17:34;6.93;;;1.70;;
24585;SDS011;12743;52.262;6.172;2023-03-30T02:20:03;8.55;;;2.03;;
24585;SDS011;12743;52.262;6.172;2023-03-30T02:22:34;5.72;;;1.58;;
24585;SDS011;12743;52.262;6.172;2023-03-30T02:25:02;5.47;;;1.57;;
24585;SDS011;12743;52.262;6.172;2023-03-30T02:27:28;6.60;;;1.48;;
24585;SDS011;12743;52.262;6.172;2023-03-30T02:29:57;10.48;;;2.03;;
24585;SDS011;12743;52.262;6.172;2023-03-30T02:32:27;9.27;;;1.90;;
24585;SDS011;12743;52.262;6.172;2023-03-30T02:40:32;5.47;;;1.67;;
24585;SDS011;12743;52.262;6.172;2023-03-30T02:43:13;6.28;;;1.75;;
24585;SDS011;12743;52.262;6.172;2023-03-30T02:46:37;5.88;;;1.60;;
24585;SDS011;12743;52.262;6.172;2023-03-30T02:51:51;6.47;;;1.40;;
24585;SDS011;12743;52.262;6.172;2023-03-30T03:00:52;9.73;;;1.90;;
24585;SDS011;12743;52.262;6.172;2023-03-30T03:03:38;5.03;;;1.05;;
24585;SDS011;12743;52.262;6.172;2023-03-30T03:06:08;6.87;;;1.80;;
24585;SDS011;12743;52.262;6.172;2023-03-30T03:08:45;7.78;;;1.77;;
24585;SDS011;12743;52.262;6.172;2023-03-30T03:11:19;3.95;;;1.25;;
24585;SDS011;12743;52.262;6.172;2023-03-30T03:13:46;5.70;;;1.25;;
24585;SDS011;12743;52.262;6.172;2023-03-30T03:16:13;6.43;;;1.30;;
24585;SDS011;12743;52.262;6.172;2023-03-30T03:18:54;5.93;;;1.20;;
24585;SDS011;12743;52.262;6.172;2023-03-30T03:21:22;9.75;;;1.67;;
24585;SDS011;12743;52.262;6.172;2023-03-30T03:23:48;5.22;;;1.50;;
24585;SDS011;12743;52.262;6.172;2023-03-30T03:26:19;7.85;;;1.65;;
24585;SDS011;12743;52.262;6.172;2023-03-30T03:28:48;6.85;;;1.40;;
24585;SDS011;12743;52.262;6.172;2023-03-30T03:31:15;5.50;;;1.60;;
24585;SDS011;12743;52.262;6.172;2023-03-30T03:33:43;7.05;;;1.40;;
24585;SDS011;12743;52.262;6.172;2023-03-30T03:36:22;5.18;;;1.35;;
24585;SDS011;12743;52.262;6.172;2023-03-30T03:38:51;5.55;;;1.80;;
24585;SDS011;12743;52.262;6.172;2023-03-30T03:41:18;8.70;;;1.92;;
24585;SDS011;12743;52.262;6.172;2023-03-30T03:43:45;4.30;;;1.30;;
24585;SDS011;12743;52.262;6.172;2023-03-30T03:46:14;6.57;;;1.30;;
24585;SDS011;12743;52.262;6.172;2023-03-30T03:48:41;7.32;;;1.60;;
24585;SDS011;12743;52.262;6.172;2023-03-30T03:51:08;6.72;;;1.45;;
24585;SDS011;12743;52.262;6.172;2023-03-30T03:53:35;6.72;;;1.60;;
24585;SDS011;12743;52.262;6.172;2023-03-30T03:56:05;5.60;;;1.60;;
24585;SDS011;12743;52.262;6.172;2023-03-30T03:58:32;5.07;;;1.10;;
24585;SDS011;12743;52.262;6.172;2023-03-30T04:01:00;5.07;;;1.23;;
24585;SDS011;12743;52.262;6.172;2023-03-30T04:03:28;5.75;;;1.30;;
24585;SDS011;12743;52.262;6.172;2023-03-30T04:05:57;8.00;;;1.42;;
24585;SDS011;12743;52.262;6.172;2023-03-30T04:08:24;7.23;;;1.30;;
24585;SDS011;12743;52.262;6.172;2023-03-30T04:10:52;5.65;;;1.67;;
24585;SDS011;12743;52.262;6.172;2023-03-30T04:13:27;8.80;;;1.50;;
24585;SDS011;12743;52.262;6.172;2023-03-30T04:16:14;5.97;;;1.10;;
24585;SDS011;12743;52.262;6.172;2023-03-30T04:18:49;5.80;;;1.30;;
24585;SDS011;12743;52.262;6.172;2023-03-30T04:21:36;7.70;;;1.40;;
24585;SDS011;12743;52.262;6.172;2023-03-30T04:24:21;6.07;;;1.10;;
24585;SDS011;12743;52.262;6.172;2023-03-30T04:27:08;4.82;;;1.25;;
24585;SDS011;12743;52.262;6.172;2023-03-30T04:29:57;5.05;;;1.20;;
24585;SDS011;12743;52.262;6.172;2023-03-30T04:32:35;5.90;;;0.90;;
24585;SDS011;12743;52.262;6.172;2023-03-30T04:35:14;6.87;;;1.10;;
24585;SDS011;12743;52.262;6.172;2023-03-30T04:38:01;4.15;;;0.90;;
24585;SDS011;12743;52.262;6.172;2023-03-30T04:40:31;6.97;;;1.15;;
24585;SDS011;12743;52.262;6.172;2023-03-30T04:43:15;4.65;;;1.10;;
24585;SDS011;12743;52.262;6.172;2023-03-30T04:45:59;4.38;;;0.70;;
24585;SDS011;12743;52.262;6.172;2023-03-30T04:48:52;6.93;;;0.80;;
24585;SDS011;12743;52.262;6.172;2023-03-30T04:51:19;4.93;;;0.77;;
24585;SDS011;12743;52.262;6.172;2023-03-30T04:53:51;4.63;;;0.93;;
24585;SDS011;12743;52.262;6.172;2023-03-30T04:56:35;5.07;;;0.50;;
24585;SDS011;12743;52.262;6.172;2023-03-30T04:59:17;6.15;;;0.93;;
24585;SDS011;12743;52.262;6.172;2023-03-30T05:02:03;5.97;;;0.60;;
24585;SDS011;12743;52.262;6.172;2023-03-30T05:04:47;7.32;;;0.70;;
24585;SDS011;12743;52.262;6.172;2023-03-30T05:07:40;5.38;;;0.73;;
24585;SDS011;12743;52.262;6.172;2023-03-30T05:10:18;6.72;;;0.90;;
24585;SDS011;12743;52.262;6.172;2023-03-30T05:12:54;4.28;;;0.90;;
24585;SDS011;12743;52.262;6.172;2023-03-30T05:15:53;7.80;;;0.93;;
24585;SDS011;12743;52.262;6.172;2023-03-30T05:18:48;9.23;;;1.05;;
24585;SDS011;12743;52.262;6.172;2023-03-30T05:21:35;5.07;;;0.90;;
24585;SDS011;12743;52.262;6.172;2023-03-30T05:24:12;6.00;;;1.00;;
24585;SDS011;12743;52.262;6.172;2023-03-30T05:26:57;5.15;;;1.10;;
24585;SDS011;12743;52.262;6.172;2023-03-30T05:29:37;8.17;;;1.57;;
24585;SDS011;12743;52.262;6.172;2023-03-30T05:32:30;4.35;;;1.35;;
24585;SDS011;12743;52.262;6.172;2023-03-30T05:35:10;6.65;;;1.80;;
24585;SDS011;12743;52.262;6.172;2023-03-30T05:37:55;6.40;;;1.52;;
24585;SDS011;12743;52.262;6.172;2023-03-30T05:40:31;8.75;;;1.63;;
24585;SDS011;12743;52.262;6.172;2023-03-30T05:43:15;7.80;;;1.50;;
24585;SDS011;12743;52.262;6.172;2023-03-30T05:45:42;9.77;;;2.05;;
24585;SDS011;12743;52.262;6.172;2023-03-30T05:48:27;6.57;;;1.50;;
24585;SDS011;12743;52.262;6.172;2023-03-30T05:51:23;4.95;;;1.33;;
24585;SDS011;12743;52.262;6.172;2023-03-30T05:53:59;5.78;;;1.30;;
24585;SDS011;12743;52.262;6.172;2023-03-30T05:56:35;6.60;;;1.73;;
24585;SDS011;12743;52.262;6.172;2023-03-30T05:59:24;6.63;;;1.45;;
24585;SDS011;12743;52.262;6.172;2023-03-30T06:02:13;4.95;;;1.20;;
24585;SDS011;12743;52.262;6.172;2023-03-30T06:04:40;5.55;;;1.30;;
24585;SDS011;12743;52.262;6.172;2023-03-30T06:07:07;7.60;;;1.90;;
24585;SDS011;12743;52.262;6.172;2023-03-30T06:09:34;6.00;;;1.83;;
24585;SDS011;12743;52.262;6.172;2023-03-30T06:12:07;6.70;;;1.83;;
24585;SDS011;12743;52.262;6.172;2023-03-30T06:14:35;6.38;;;1.83;;
24585;SDS011;12743;52.262;6.172;2023-03-30T06:17:18;5.55;;;1.60;;
24585;SDS011;12743;52.262;6.172;2023-03-30T06:19:45;7.88;;;1.80;;
24585;SDS011;12743;52.262;6.172;2023-03-30T06:22:11;6.93;;;2.10;;
24585;SDS011;12743;52.262;6.172;2023-03-30T06:24:46;9.27;;;2.33;;
24585;SDS011;12743;52.262;6.172;2023-03-30T06:27:12;9.38;;;2.70;;
24585;SDS011;12743;52.262;6.172;2023-03-30T06:29:39;7.53;;;2.00;;
24585;SDS011;12743;52.262;6.172;2023-03-30T06:32:07;12.13;;;2.60;;
24585;SDS011;12743;52.262;6.172;2023-03-30T06:34:49;8.67;;;2.43;;
24585;SDS011;12743;52.262;6.172;2023-03-30T06:37:17;8.02;;;2.22;;
24585;SDS011;12743;52.262;6.172;2023-03-30T06:39:45;10.25;;;1.85;;
24585;SDS011;12743;52.262;6.172;2023-03-30T06:42:12;9.35;;;2.28;;
24585;SDS011;12743;52.262;6.172;2023-03-30T06:44:58;9.98;;;2.47;;
24585;SDS011;12743;52.262;6.172;2023-03-30T06:47:26;8.87;;;2.60;;
24585;SDS011;12743;52.262;6.172;2023-03-30T06:49:53;9.57;;;2.40;;
24585;SDS011;12743;52.262;6.172;2023-03-30T06:52:43;11.27;;;2.20;;
24585;SDS011;12743;52.262;6.172;2023-03-30T06:55:09;9.45;;;1.75;;
24585;SDS011;12743;52.262;6.172;2023-03-30T06:57:36;9.52;;;2.20;;
24585;SDS011;12743;52.262;6.172;2023-03-30T07:00:03;14.67;;;2.03;;
24585;SDS011;12743;52.262;6.172;2023-03-30T07:02:58;12.50;;;2.50;;
24585;SDS011;12743;52.262;6.172;2023-03-30T07:05:35;8.18;;;1.85;;
24585;SDS011;12743;52.262;6.172;2023-03-30T07:08:13;15.65;;;2.10;;
24585;SDS011;12743;52.262;6.172;2023-03-30T07:10:46;10.02;;;2.10;;
24585;SDS011;12743;52.262;6.172;2023-03-30T07:13:14;10.17;;;1.77;;
24585;SDS011;12743;52.262;6.172;2023-03-30T07:15:46;12.10;;;1.88;;
24585;SDS011;12743;52.262;6.172;2023-03-30T07:18:13;9.73;;;1.83;;
24585;SDS011;12743;52.262;6.172;2023-03-30T07:20:41;12.55;;;2.42;;
24585;SDS011;12743;52.262;6.172;2023-03-30T07:23:15;10.05;;;1.80;;
24585;SDS011;12743;52.262;6.172;2023-03-30T07:25:44;11.07;;;1.93;;
24585;SDS011;12743;52.262;6.172;2023-03-30T07:28:18;13.32;;;1.40;;
24585;SDS011;12743;52.262;6.172;2023-03-30T07:30:45;9.02;;;1.65;;
24585;SDS011;12743;52.262;6.172;2023-03-30T07:33:12;13.88;;;2.22;;
24585;SDS011;12743;52.262;6.172;2023-03-30T07:35:44;13.60;;;2.35;;
24585;SDS011;12743;52.262;6.172;2023-03-30T07:38:14;9.97;;;1.40;;
24585;SDS011;12743;52.262;6.172;2023-03-30T07:40:47;13.95;;;1.73;;
24585;SDS011;12743;52.262;6.172;2023-03-30T07:43:14;13.32;;;2.00;;
24585;SDS011;12743;52.262;6.172;2023-03-30T07:45:42;11.25;;;1.55;;
24585;SDS011;12743;52.262;6.172;2023-03-30T07:48:13;14.07;;;1.50;;
24585;SDS011;12743;52.262;6.172;2023-03-30T07:50:39;14.33;;;2.00;;
24585;SDS011;12743;52.262;6.172;2023-03-30T07:53:06;18.80;;;2.70;;
24585;SDS011;12743;52.262;6.172;2023-03-30T07:55:33;14.57;;;2.42;;
24585;SDS011;12743;52.262;6.172;2023-03-30T07:58:07;13.65;;;1.70;;
24585;SDS011;12743;52.262;6.172;2023-03-30T08:00:34;12.57;;;2.08;;
24585;SDS011;12743;52.262;6.172;2023-03-30T08:03:26;14.10;;;2.17;;
24585;SDS011;12743;52.262;6.172;2023-03-30T08:05:54;14.93;;;3.05;;
24585;SDS011;12743;52.262;6.172;2023-03-30T08:08:24;14.63;;;2.53;;
24585;SDS011;12743;52.262;6.172;2023-03-30T08:10:52;11.55;;;2.00;;
24585;SDS011;12743;52.262;6.172;2023-03-30T08:13:19;15.52;;;2.55;;
24585;SDS011;12743;52.262;6.172;2023-03-30T08:15:47;12.57;;;1.50;;
24585;SDS011;12743;52.262;6.172;2023-03-30T08:18:14;13.60;;;2.03;;
24585;SDS011;12743;52.262;6.172;2023-03-30T08:20:41;21.13;;;2.60;;
24585;SDS011;12743;52.262;6.172;2023-03-30T08:23:08;13.38;;;1.50;;
24585;SDS011;12743;52.262;6.172;2023-03-30T08:25:36;15.52;;;2.47;;
24585;SDS011;12743;52.262;6.172;2023-03-30T08:28:03;10.53;;;1.83;;
24585;SDS011;12743;52.262;6.172;2023-03-30T08:30:31;9.27;;;1.60;;
24585;SDS011;12743;52.262;6.172;2023-03-30T08:32:57;11.15;;;1.63;;
24585;SDS011;12743;52.262;6.172;2023-03-30T08:35:24;12.05;;;1.98;;
24585;SDS011;12743;52.262;6.172;2023-03-30T08:37:51;13.38;;;1.92;;
24585;SDS011;12743;52.262;6.172;2023-03-30T08:40:17;16.47;;;2.30;;
24585;SDS011;12743;52.262;6.172;2023-03-30T08:45:37;10.02;;;1.90;;
24585;SDS011;12743;52.262;6.172;2023-03-30T08:48:15;17.02;;;1.98;;
24585;SDS011;12743;52.262;6.172;2023-03-30T08:51:00;14.45;;;1.48;;
24585;SDS011;12743;52.262;6.172;2023-03-30T08:53:32;10.87;;;1.83;;
24585;SDS011;12743;52.262;6.172;2023-03-30T08:56:21;15.90;;;2.00;;
24585;SDS011;12743;52.262;6.172;2023-03-30T08:58:58;11.60;;;1.70;;
24585;SDS011;12743;52.262;6.172;2023-03-30T09:01:42;11.95;;;1.90;;
24585;SDS011;12743;52.262;6.172;2023-03-30T09:07:10;8.90;;;1.60;;
24585;SDS011;12743;52.262;6.172;2023-03-30T09:09:44;12.05;;;1.90;;
24585;SDS011;12743;52.262;6.172;2023-03-30T09:14:59;13.88;;;2.65;;
24585;SDS011;12743;52.262;6.172;2023-03-30T09:17:38;22.33;;;2.38;;
24585;SDS011;12743;52.262;6.172;2023-03-30T09:20:25;21.20;;;2.37;;
24585;SDS011;12743;52.262;6.172;2023-03-30T09:22:53;16.88;;;2.40;;
24585;SDS011;12743;52.262;6.172;2023-03-30T09:25:44;12.18;;;2.05;;
24585;SDS011;12743;52.262;6.172;2023-03-30T09:31:17;15.10;;;2.20;;
24585;SDS011;12743;52.262;6.172;2023-03-30T09:36:30;12.85;;;2.22;;
24585;SDS011;12743;52.262;6.172;2023-03-30T09:39:10;18.70;;;2.45;;
24585;SDS011;12743;52.262;6.172;2023-03-30T09:44:35;13.20;;;2.03;;
24585;SDS011;12743;52.262;6.172;2023-03-30T09:47:24;15.63;;;2.90;;
24585;SDS011;12743;52.262;6.172;2023-03-30T09:50:04;17.88;;;2.63;;
24585;SDS011;12743;52.262;6.172;2023-03-30T09:52:33;15.40;;;2.08;;
24585;SDS011;12743;52.262;6.172;2023-03-30T09:55:15;15.23;;;2.35;;
24585;SDS011;12743;52.262;6.172;2023-03-30T09:57:49;13.63;;;2.33;;
24585;SDS011;12743;52.262;6.172;2023-03-30T10:02:55;13.93;;;1.88;;
24585;SDS011;12743;52.262;6.172;2023-03-30T10:05:23;14.73;;;2.47;;
24585;SDS011;12743;52.262;6.172;2023-03-30T10:07:54;14.30;;;1.77;;
24585;SDS011;12743;52.262;6.172;2023-03-30T10:10:30;14.32;;;1.83;;
24585;SDS011;12743;52.262;6.172;2023-03-30T10:15:37;12.90;;;2.03;;
24585;SDS011;12743;52.262;6.172;2023-03-30T10:18:26;12.13;;;1.50;;
24585;SDS011;12743;52.262;6.172;2023-03-30T10:21:00;14.13;;;1.60;;
24585;SDS011;12743;52.262;6.172;2023-03-30T10:23:30;12.13;;;1.55;;
24585;SDS011;12743;52.262;6.172;2023-03-30T10:26:00;15.17;;;1.70;;
24585;SDS011;12743;52.262;6.172;2023-03-30T10:28:30;11.30;;;1.63;;
24585;SDS011;12743;52.262;6.172;2023-03-30T10:31:03;13.15;;;1.98;;
24585;SDS011;12743;52.262;6.172;2023-03-30T10:33:37;13.38;;;1.20;;
24585;SDS011;12743;52.262;6.172;2023-03-30T10:36:06;14.05;;;1.63;;
24585;SDS011;12743;52.262;6.172;2023-03-30T10:38:33;8.37;;;1.07;;
24585;SDS011;12743;52.262;6.172;2023-03-30T10:41:11;11.50;;;2.28;;
24585;SDS011;12743;52.262;6.172;2023-03-30T10:43:40;14.30;;;1.95;;
24585;SDS011;12743;52.262;6.172;2023-03-30T10:46:15;15.82;;;2.10;;
24585;SDS011;12743;52.262;6.172;2023-03-30T10:49:01;14.73;;;2.20;;
24585;SDS011;12743;52.262;6.172;2023-03-30T10:51:59;15.40;;;2.00;;
24585;SDS011;12743;52.262;6.172;2023-03-30T10:54:41;18.95;;;2.25;;
24585;SDS011;12743;52.262;6.172;2023-03-30T10:57:13;14.52;;;2.22;;
24585;SDS011;12743;52.262;6.172;2023-03-30T11:05:10;16.03;;;2.30;;
24585;SDS011;12743;52.262;6.172;2023-03-30T11:07:49;13.65;;;1.92;;
24585;SDS011;12743;52.262;6.172;2023-03-30T11:10:21;17.98;;;1.98;;
24585;SDS011;12743;52.262;6.172;2023-03-30T11:12:58;16.63;;;2.20;;
24585;SDS011;12743;52.262;6.172;2023-03-30T11:15:39;14.68;;;1.88;;
24585;SDS011;12743;52.262;6.172;2023-03-30T11:18:22;14.10;;;1.70;;
24585;SDS011;12743;52.262;6.172;2023-03-30T11:23:53;14.85;;;2.00;;
24585;SDS011;12743;52.262;6.172;2023-03-30T11:29:41;16.33;;;2.03;;
24585;SDS011;12743;52.262;6.172;2023-03-30T11:32:23;15.97;;;1.60;;
24585;SDS011;12743;52.262;6.172;2023-03-30T11:37:45;15.68;;;2.03;;
24585;SDS011;12743;52.262;6.172;2023-03-30T11:40:23;18.30;;;1.90;;
24585;SDS011;12743;52.262;6.172;2023-03-30T11:42:54;19.10;;;2.42;;
24585;SDS011;12743;52.262;6.172;2023-03-30T11:48:13;15.93;;;2.20;;
24585;SDS011;12743;52.262;6.172;2023-03-30T11:56:13;16.92;;;1.77;;
24585;SDS011;12743;52.262;6.172;2023-03-30T11:58:57;21.53;;;2.57;;
24585;SDS011;12743;52.262;6.172;2023-03-30T12:01:39;25.65;;;3.10;;
24585;SDS011;12743;52.262;6.172;2023-03-30T12:04:19;15.98;;;2.63;;
24585;SDS011;12743;52.262;6.172;2023-03-30T12:06:56;17.27;;;2.33;;
24585;SDS011;12743;52.262;6.172;2023-03-30T12:09:42;17.50;;;2.20;;
24585;SDS011;12743;52.262;6.172;2023-03-30T12:12:24;17.47;;;2.30;;
24585;SDS011;12743;52.262;6.172;2023-03-30T12:22:40;18.40;;;2.53;;
24585;SDS011;12743;52.262;6.172;2023-03-30T12:25:27;18.27;;;1.63;;
24585;SDS011;12743;52.262;6.172;2023-03-30T12:28:16;22.02;;;2.53;;
24585;SDS011;12743;52.262;6.172;2023-03-30T12:30:45;20.10;;;2.33;;
24585;SDS011;12743;52.262;6.172;2023-03-30T12:33:27;18.83;;;2.10;;
24585;SDS011;12743;52.262;6.172;2023-03-30T12:35:59;16.65;;;1.90;;
24585;SDS011;12743;52.262;6.172;2023-03-30T12:38:34;23.70;;;2.40;;
24585;SDS011;12743;52.262;6.172;2023-03-30T12:41:10;15.85;;;1.83;;
24585;SDS011;12743;52.262;6.172;2023-03-30T13:05:53;14.13;;;1.30;;
24585;SDS011;12743;52.262;6.172;2023-03-30T13:08:34;18.83;;;2.08;;
24585;SDS011;12743;52.262;6.172;2023-03-30T13:11:06;23.13;;;2.17;;
24585;SDS011;12743;52.262;6.172;2023-03-30T13:19:27;14.37;;;2.30;;
24585;SDS011;12743;52.262;6.172;2023-03-30T13:27:30;16.83;;;2.10;;
24585;SDS011;12743;52.262;6.172;2023-03-30T13:30:03;16.77;;;1.77;;
24585;SDS011;12743;52.262;6.172;2023-03-30T13:35:32;15.80;;;1.85;;
24585;SDS011;12743;52.262;6.172;2023-03-30T13:38:10;18.05;;;2.20;;
24585;SDS011;12743;52.262;6.172;2023-03-30T13:40:52;18.83;;;2.13;;
24585;SDS011;12743;52.262;6.172;2023-03-30T13:43:38;12.75;;;1.80;;
24585;SDS011;12743;52.262;6.172;2023-03-30T13:51:53;17.85;;;1.83;;
24585;SDS011;12743;52.262;6.172;2023-03-30T13:54:28;13.02;;;1.52;;
24585;SDS011;12743;52.262;6.172;2023-03-30T13:57:08;14.85;;;1.63;;
24585;SDS011;12743;52.262;6.172;2023-03-30T13:59:39;14.77;;;1.80;;
24585;SDS011;12743;52.262;6.172;2023-03-30T14:02:12;16.27;;;1.50;;
24585;SDS011;12743;52.262;6.172;2023-03-30T14:04:41;9.82;;;1.08;;
24585;SDS011;12743;52.262;6.172;2023-03-30T14:07:12;9.13;;;1.00;;
24585;SDS011;12743;52.262;6.172;2023-03-30T14:09:41;17.88;;;1.85;;
24585;SDS011;12743;52.262;6.172;2023-03-30T14:12:09;12.57;;;1.83;;
24585;SDS011;12743;52.262;6.172;2023-03-30T14:14:40;15.77;;;2.30;;
24585;SDS011;12743;52.262;6.172;2023-03-30T14:17:13;14.95;;;2.00;;
24585;SDS011;12743;52.262;6.172;2023-03-30T14:22:31;18.00;;;2.17;;
24585;SDS011;12743;52.262;6.172;2023-03-30T14:25:10;16.43;;;1.90;;
24585;SDS011;12743;52.262;6.172;2023-03-30T14:27:48;19.63;;;1.67;;
24585;SDS011;12743;52.262;6.172;2023-03-30T14:30:18;14.48;;;2.42;;
24585;SDS011;12743;52.262;6.172;2023-03-30T14:32:46;17.40;;;2.13;;
24585;SDS011;12743;52.262;6.172;2023-03-30T14:35:16;24.33;;;2.35;;
24585;SDS011;12743;52.262;6.172;2023-03-30T14:37:46;13.67;;;2.00;;
24585;SDS011;12743;52.262;6.172;2023-03-30T14:40:18;15.45;;;2.17;;
24585;SDS011;12743;52.262;6.172;2023-03-30T14:42:47;17.45;;;2.70;;
24585;SDS011;12743;52.262;6.172;2023-03-30T14:45:14;12.38;;;1.92;;
24585;SDS011;12743;52.262;6.172;2023-03-30T14:47:42;11.70;;;2.00;;
24585;SDS011;12743;52.262;6.172;2023-03-30T14:50:11;19.63;;;2.20;;
24585;SDS011;12743;52.262;6.172;2023-03-30T14:52:42;13.50;;;1.80;;
24585;SDS011;12743;52.262;6.172;2023-03-30T14:55:12;15.05;;;1.60;;
24585;SDS011;12743;52.262;6.172;2023-03-30T14:57:46;16.83;;;2.05;;
24585;SDS011;12743;52.262;6.172;2023-03-30T15:00:14;12.60;;;1.83;;
24585;SDS011;12743;52.262;6.172;2023-03-30T15:02:43;14.43;;;1.97;;
24585;SDS011;12743;52.262;6.172;2023-03-30T15:05:13;15.88;;;2.42;;
24585;SDS011;12743;52.262;6.172;2023-03-30T15:07:44;14.35;;;2.15;;
24585;SDS011;12743;52.262;6.172;2023-03-30T15:10:20;15.73;;;1.77;;
24585;SDS011;12743;52.262;6.172;2023-03-30T15:12:49;19.90;;;2.78;;
24585;SDS011;12743;52.262;6.172;2023-03-30T15:15:20;19.23;;;2.00;;
24585;SDS011;12743;52.262;6.172;2023-03-30T15:17:52;19.13;;;2.13;;
24585;SDS011;12743;52.262;6.172;2023-03-30T15:20:21;19.05;;;2.75;;
24585;SDS011;12743;52.262;6.172;2023-03-30T15:22:50;17.75;;;2.55;;
24585;SDS011;12743;52.262;6.172;2023-03-30T15:25:19;15.95;;;2.00;;
24585;SDS011;12743;52.262;6.172;2023-03-30T15:27:52;14.30;;;2.23;;
24585;SDS011;12743;52.262;6.172;2023-03-30T15:30:33;16.38;;;1.95;;
24585;SDS011;12743;52.262;6.172;2023-03-30T15:33:04;16.60;;;2.10;;
24585;SDS011;12743;52.262;6.172;2023-03-30T15:35:33;19.25;;;2.33;;
24585;SDS011;12743;52.262;6.172;2023-03-30T15:40:41;15.37;;;2.30;;
24585;SDS011;12743;52.262;6.172;2023-03-30T15:43:20;12.27;;;1.88;;
24585;SDS011;12743;52.262;6.172;2023-03-30T15:45:55;11.90;;;1.88;;
24585;SDS011;12743;52.262;6.172;2023-03-30T15:48:35;15.77;;;1.98;;
24585;SDS011;12743;52.262;6.172;2023-03-30T15:51:20;13.98;;;1.55;;
24585;SDS011;12743;52.262;6.172;2023-03-30T15:56:28;15.93;;;2.08;;
24585;SDS011;12743;52.262;6.172;2023-03-30T15:58:59;19.25;;;1.95;;
24585;SDS011;12743;52.262;6.172;2023-03-30T16:01:27;14.20;;;1.55;;
24585;SDS011;12743;52.262;6.172;2023-03-30T16:04:09;13.63;;;1.60;;
24585;SDS011;12743;52.262;6.172;2023-03-30T16:06:40;12.57;;;1.33;;
24585;SDS011;12743;52.262;6.172;2023-03-30T16:09:09;12.70;;;1.40;;
24585;SDS011;12743;52.262;6.172;2023-03-30T16:11:36;13.88;;;2.00;;
24585;SDS011;12743;52.262;6.172;2023-03-30T16:14:04;11.45;;;1.70;;
24585;SDS011;12743;52.262;6.172;2023-03-30T16:16:33;17.08;;;1.60;;
24585;SDS011;12743;52.262;6.172;2023-03-30T16:18:59;14.80;;;1.60;;
24585;SDS011;12743;52.262;6.172;2023-03-30T16:21:26;18.33;;;1.77;;
24585;SDS011;12743;52.262;6.172;2023-03-30T16:23:53;9.68;;;1.30;;
24585;SDS011;12743;52.262;6.172;2023-03-30T16:26:19;12.85;;;1.65;;
24585;SDS011;12743;52.262;6.172;2023-03-30T16:28:53;12.80;;;1.30;;
24585;SDS011;12743;52.262;6.172;2023-03-30T16:31:21;12.87;;;1.50;;
24585;SDS011;12743;52.262;6.172;2023-03-30T16:33:48;11.90;;;1.48;;
24585;SDS011;12743;52.262;6.172;2023-03-30T16:36:16;14.77;;;1.73;;
24585;SDS011;12743;52.262;6.172;2023-03-30T16:38:44;13.23;;;1.35;;
24585;SDS011;12743;52.262;6.172;2023-03-30T16:41:13;13.13;;;1.77;;
24585;SDS011;12743;52.262;6.172;2023-03-30T16:43:43;17.80;;;2.10;;
24585;SDS011;12743;52.262;6.172;2023-03-30T16:46:13;11.77;;;1.42;;
24585;SDS011;12743;52.262;6.172;2023-03-30T16:48:41;14.50;;;1.58;;
24585;SDS011;12743;52.262;6.172;2023-03-30T16:51:09;11.43;;;1.45;;
24585;SDS011;12743;52.262;6.172;2023-03-30T16:53:36;17.52;;;1.83;;
24585;SDS011;12743;52.262;6.172;2023-03-30T16:56:03;11.97;;;1.63;;
24585;SDS011;12743;52.262;6.172;2023-03-30T16:58:30;12.15;;;2.10;;
24585;SDS011;12743;52.262;6.172;2023-03-30T17:00:56;15.25;;;2.10;;
24585;SDS011;12743;52.262;6.172;2023-03-30T17:03:29;14.32;;;1.20;;
24585;SDS011;12743;52.262;6.172;2023-03-30T17:05:57;15.65;;;1.40;;
24585;SDS011;12743;52.262;6.172;2023-03-30T17:08:24;14.10;;;1.57;;
24585;SDS011;12743;52.262;6.172;2023-03-30T17:10:53;15.02;;;1.52;;
24585;SDS011;12743;52.262;6.172;2023-03-30T17:13:29;19.52;;;1.65;;
24585;SDS011;12743;52.262;6.172;2023-03-30T17:15:57;19.02;;;1.88;;
24585;SDS011;12743;52.262;6.172;2023-03-30T17:18:26;10.38;;;1.15;;
24585;SDS011;12743;52.262;6.172;2023-03-30T17:20:57;15.03;;;1.47;;
24585;SDS011;12743;52.262;6.172;2023-03-30T17:23:27;12.52;;;1.42;;
24585;SDS011;12743;52.262;6.172;2023-03-30T17:25:58;13.95;;;1.38;;
24585;SDS011;12743;52.262;6.172;2023-03-30T17:28:26;15.82;;;1.45;;
24585;SDS011;12743;52.262;6.172;2023-03-30T17:31:02;16.15;;;1.55;;
24585;SDS011;12743;52.262;6.172;2023-03-30T17:33:32;16.13;;;2.07;;
24585;SDS011;12743;52.262;6.172;2023-03-30T17:36:03;12.75;;;1.40;;
24585;SDS011;12743;52.262;6.172;2023-03-30T17:38:41;14.48;;;1.70;;
24585;SDS011;12743;52.262;6.172;2023-03-30T17:41:09;11.95;;;1.17;;
24585;SDS011;12743;52.262;6.172;2023-03-30T17:43:40;12.98;;;1.50;;